createdAt,value
2018-06-13T00:00:26.417Z,13.47
2018-06-13T00:03:30.013Z,13.40
2018-06-13T00:06:33.701Z,13.39
2018-06-13T00:09:37.228Z,13.44
2018-06-13T00:12:40.856Z,13.33
2018-06-13T00:15:44.453Z,13.36
2018-06-13T00:18:48.092Z,13.32
2018-06-13T00:21:51.647Z,13.27
2018-06-13T00:24:55.205Z,13.30
2018-06-13T00:27:58.799Z,13.38
2018-06-13T00:31:02.344Z,13.35
2018-06-13T00:34:06.013Z,13.26
2018-06-13T00:37:09.576Z,13.26
2018-06-13T00:40:13.128Z,13.20
2018-06-13T00:43:16.789Z,13.21
2018-06-13T00:46:20.568Z,13.18
2018-06-13T00:49:24.172Z,13.20
2018-06-13T00:52:27.826Z,13.14
2018-06-13T00:55:31.441Z,13.11
2018-06-13T00:58:35.044Z,13.16
2018-06-13T01:01:39.169Z,13.09
2018-06-13T01:04:42.820Z,13.05
2018-06-13T01:07:46.375Z,13.08
2018-06-13T01:10:49.972Z,13.11
2018-06-13T01:13:53.502Z,13.04
2018-06-13T01:16:57.128Z,13.01
2018-06-13T01:20:00.698Z,12.99
2018-06-13T01:23:04.702Z,13.07
2018-06-13T01:26:08.276Z,13.05
2018-06-13T01:29:11.923Z,12.94
2018-06-13T01:32:15.420Z,13.00
2018-06-13T01:35:18.978Z,13.00
2018-06-13T01:38:22.565Z,12.95
2018-06-13T01:41:26.224Z,12.93
2018-06-13T01:44:29.788Z,12.89
2018-06-13T01:47:33.392Z,12.84
2018-06-13T01:50:36.992Z,12.89
2018-06-13T01:53:40.707Z,12.82
2018-06-13T01:56:44.263Z,12.80
2018-06-13T01:59:47.827Z,12.81
2018-06-13T02:02:51.386Z,12.80
2018-06-13T02:05:54.942Z,12.78
2018-06-13T02:08:58.489Z,12.72
2018-06-13T02:12:02.049Z,12.69
2018-06-13T02:15:05.648Z,12.72
2018-06-13T02:18:09.298Z,12.66
2018-06-13T02:21:12.863Z,12.70
2018-06-13T02:24:16.608Z,12.63
2018-06-13T02:27:20.198Z,12.64
2018-06-13T02:30:23.764Z,12.61
2018-06-13T02:33:27.284Z,12.57
2018-06-13T02:36:30.887Z,12.57
2018-06-13T02:39:34.424Z,12.51
2018-06-13T02:42:38.096Z,12.55
2018-06-13T02:45:41.659Z,12.46
2018-06-13T02:48:45.240Z,12.44
2018-06-13T02:51:48.780Z,12.44
2018-06-13T02:54:52.364Z,12.46
2018-06-13T02:57:55.963Z,12.48
2018-06-13T03:00:59.601Z,12.51
2018-06-13T03:04:03.193Z,12.49
2018-06-13T03:07:07.003Z,12.53
2018-06-13T03:10:10.604Z,12.51
2018-06-13T03:13:14.205Z,12.50
2018-06-13T03:16:17.843Z,12.51
2018-06-13T03:19:21.533Z,12.55
2018-06-13T03:22:25.084Z,12.58
2018-06-13T03:25:28.758Z,12.53
2018-06-13T03:28:32.418Z,12.52
2018-06-13T03:31:36.006Z,12.51
2018-06-13T03:34:39.555Z,12.52
2018-06-13T03:37:43.094Z,12.56
2018-06-13T03:40:46.715Z,12.51
2018-06-13T03:43:50.340Z,12.56
2018-06-13T03:46:53.896Z,12.57
2018-06-13T03:49:57.455Z,12.50
2018-06-13T03:53:01.150Z,12.51
2018-06-13T03:56:04.886Z,12.49
2018-06-13T03:59:08.525Z,12.45
2018-06-13T04:02:12.310Z,12.52
2018-06-13T04:05:15.896Z,12.60
2018-06-13T04:08:19.419Z,12.56
2018-06-13T04:11:22.945Z,12.61
2018-06-13T04:14:26.506Z,12.60
2018-06-13T04:17:30.035Z,12.60
2018-06-13T04:20:33.651Z,12.63
2018-06-13T04:23:37.363Z,12.60
2018-06-13T04:26:40.966Z,12.61
2018-06-13T04:29:44.525Z,12.58
2018-06-13T04:32:48.216Z,12.56
2018-06-13T04:35:51.817Z,12.53
2018-06-13T04:38:55.629Z,12.61
2018-06-13T04:41:59.256Z,12.61
2018-06-13T04:45:02.862Z,12.67
2018-06-13T04:48:06.475Z,12.60
2018-06-13T04:51:10.132Z,12.55
2018-06-13T04:54:13.725Z,12.57
2018-06-13T04:57:17.901Z,12.62
2018-06-13T05:00:21.720Z,12.58
2018-06-13T05:03:25.305Z,12.61
2018-06-13T05:06:28.916Z,12.71
2018-06-13T05:09:32.510Z,12.75
2018-06-13T05:12:36.097Z,12.85
2018-06-13T05:15:39.647Z,12.88
2018-06-13T05:18:44.345Z,12.82
2018-06-13T05:21:47.981Z,12.91
2018-06-13T05:24:51.836Z,12.94
2018-06-13T05:27:55.352Z,12.89
2018-06-13T05:30:58.974Z,12.89
2018-06-13T05:34:02.610Z,13.06
2018-06-13T05:37:06.501Z,13.12
2018-06-13T05:40:10.155Z,13.14
2018-06-13T05:43:13.767Z,13.23
2018-06-13T05:46:17.331Z,13.18
2018-06-13T05:49:22.097Z,13.18
2018-06-13T05:52:25.677Z,13.20
2018-06-13T05:55:29.361Z,13.25
2018-06-13T05:58:33.035Z,13.29
2018-06-13T06:01:36.611Z,13.20
2018-06-13T06:04:40.225Z,13.55
2018-06-13T06:07:43.771Z,13.51
2018-06-13T06:10:47.436Z,13.43
2018-06-13T06:13:51.268Z,13.63
2018-06-13T06:16:54.833Z,13.54
2018-06-13T06:19:58.366Z,13.70
2018-06-13T06:23:02.132Z,13.83
2018-06-13T06:26:05.828Z,14.01
2018-06-13T06:29:09.521Z,14.08
2018-06-13T06:32:13.070Z,13.93
2018-06-13T06:35:16.666Z,13.78
2018-06-13T06:38:20.268Z,13.81
2018-06-13T06:41:23.881Z,13.88
2018-06-13T06:44:27.512Z,14.01
2018-06-13T06:47:31.146Z,14.10
2018-06-13T06:50:34.708Z,14.00
2018-06-13T06:53:38.298Z,14.11
2018-06-13T06:56:41.911Z,14.15
2018-06-13T06:59:45.490Z,14.20
2018-06-13T07:02:49.156Z,14.11
2018-06-13T07:05:52.744Z,14.05
2018-06-13T07:08:56.523Z,14.05
2018-06-13T07:12:00.103Z,14.05
2018-06-13T07:15:03.788Z,14.05
2018-06-13T07:18:07.463Z,14.21
2018-06-13T07:21:11.183Z,14.36
2018-06-13T07:24:14.841Z,14.54
2018-06-13T07:27:18.424Z,14.42
2018-06-13T07:30:22.053Z,14.33
2018-06-13T07:33:25.753Z,14.36
2018-06-13T07:36:29.314Z,14.63
2018-06-13T07:39:32.968Z,14.49
2018-06-13T07:42:36.507Z,14.71
2018-06-13T07:45:40.139Z,14.83
2018-06-13T07:48:43.708Z,14.77
2018-06-13T07:51:47.359Z,14.73
2018-06-13T07:54:50.904Z,14.66
2018-06-13T07:57:54.484Z,14.45
2018-06-13T08:00:58.067Z,14.45
2018-06-13T08:04:01.623Z,14.71
2018-06-13T08:07:05.256Z,14.54
2018-06-13T08:10:08.874Z,14.64
2018-06-13T08:13:12.402Z,14.64
2018-06-13T08:16:15.948Z,14.86
2018-06-13T08:19:19.553Z,14.95
2018-06-13T08:22:23.137Z,14.42
2018-06-13T08:25:26.828Z,14.39
2018-06-13T08:28:30.410Z,14.26
2018-06-13T08:31:34.039Z,14.10
2018-06-13T08:34:37.603Z,14.09
2018-06-13T08:37:41.236Z,14.07
2018-06-13T08:40:44.812Z,13.99
2018-06-13T08:43:48.437Z,14.11
2018-06-13T08:46:52.007Z,13.92
2018-06-13T08:49:55.545Z,13.75
2018-06-13T08:52:59.139Z,13.80
2018-06-13T08:56:02.827Z,13.78
2018-06-13T08:59:06.408Z,13.84
2018-06-13T09:02:09.967Z,14.15
2018-06-13T09:05:13.644Z,14.52
2018-06-13T09:08:17.278Z,14.38
2018-06-13T09:11:20.827Z,14.50
2018-06-13T09:14:24.488Z,14.72
2018-06-13T09:17:28.043Z,14.81
2018-06-13T09:20:31.762Z,15.44
2018-06-13T09:23:35.555Z,15.92
2018-06-13T09:26:39.082Z,16.18
2018-06-13T09:29:42.737Z,16.28
2018-06-13T09:32:46.355Z,16.42
2018-06-13T09:35:49.934Z,16.26
2018-06-13T09:38:53.488Z,16.80
2018-06-13T09:42:01.163Z,16.73
2018-06-13T09:45:04.820Z,16.78
2018-06-13T09:48:08.390Z,16.58
2018-06-13T09:51:12.036Z,16.44
2018-06-13T09:54:15.603Z,16.37
2018-06-13T09:57:19.203Z,15.91
2018-06-13T10:00:28.079Z,15.85
2018-06-13T10:03:31.714Z,15.68
2018-06-13T10:06:35.854Z,15.53
2018-06-13T10:09:39.411Z,15.85
2018-06-13T10:12:42.989Z,16.13
2018-06-13T10:15:46.668Z,16.14
2018-06-13T10:18:50.265Z,16.24
2018-06-13T10:21:54.008Z,16.48
2018-06-13T10:24:57.663Z,16.34
2018-06-13T10:28:01.308Z,16.71
2018-06-13T10:31:04.870Z,17.05
2018-06-13T10:34:08.453Z,16.90
2018-06-13T10:37:12.129Z,17.19
2018-06-13T10:40:15.678Z,17.28
2018-06-13T10:43:19.265Z,16.99
2018-06-13T10:46:22.818Z,16.79
2018-06-13T10:49:26.474Z,16.46
2018-06-13T10:52:30.039Z,16.14
2018-06-13T10:55:33.706Z,15.93
2018-06-13T10:58:37.233Z,15.84
2018-06-13T11:01:40.909Z,15.69
2018-06-13T11:04:44.446Z,15.58
2018-06-13T11:07:47.995Z,15.39
2018-06-13T11:10:51.525Z,15.63
2018-06-13T11:13:55.157Z,15.52
2018-06-13T11:16:58.764Z,15.54
2018-06-13T11:20:02.489Z,15.21
2018-06-13T11:23:06.340Z,15.02
2018-06-13T11:26:10.098Z,15.22
2018-06-13T11:29:13.644Z,15.04
2018-06-13T11:32:17.277Z,14.79
2018-06-13T11:35:20.939Z,14.63
2018-06-13T11:38:24.580Z,14.56
2018-06-13T11:41:28.182Z,14.65
2018-06-13T11:44:31.838Z,14.87
2018-06-13T11:47:35.474Z,14.95
2018-06-13T11:50:39.040Z,14.77
2018-06-13T11:53:42.700Z,14.92
2018-06-13T11:56:46.377Z,14.83
2018-06-13T11:59:50.046Z,15.31
2018-06-13T12:02:53.685Z,15.29
2018-06-13T12:05:57.390Z,15.38
2018-06-13T12:09:00.961Z,15.78
2018-06-13T12:12:04.633Z,16.20
2018-06-13T12:15:08.310Z,16.57
2018-06-13T12:18:12.450Z,16.76
2018-06-13T12:21:16.045Z,16.55
2018-06-13T12:24:19.705Z,16.42
2018-06-13T12:27:23.213Z,16.61
2018-06-13T12:30:26.789Z,17.02
2018-06-13T12:33:32.791Z,16.87
2018-06-13T12:36:36.509Z,17.15
2018-06-13T12:39:40.178Z,17.01
2018-06-13T12:42:43.857Z,17.17
2018-06-13T12:45:47.403Z,16.95
2018-06-13T12:48:50.995Z,16.90
2018-06-13T12:51:54.566Z,16.86
2018-06-13T12:54:58.112Z,16.41
2018-06-13T12:58:01.712Z,16.39
2018-06-13T13:01:05.365Z,16.15
2018-06-13T13:04:08.997Z,16.11
2018-06-13T13:07:12.702Z,16.31
2018-06-13T13:10:18.885Z,16.40
2018-06-13T13:13:22.546Z,16.86
2018-06-13T13:16:26.112Z,16.94
2018-06-13T13:19:29.658Z,16.85
2018-06-13T13:22:33.316Z,16.75
2018-06-13T13:25:37.031Z,16.64
2018-06-13T13:28:40.680Z,16.84
2018-06-13T13:31:44.290Z,17.11
2018-06-13T13:34:47.848Z,16.89
2018-06-13T13:37:51.466Z,16.84
2018-06-13T13:40:57.743Z,16.90
2018-06-13T13:44:01.345Z,17.30
2018-06-13T13:47:04.957Z,17.26
2018-06-13T13:50:08.547Z,17.06
2018-06-13T13:53:12.234Z,17.37
2018-06-13T13:56:17.857Z,17.36
2018-06-13T13:59:21.472Z,17.09
2018-06-13T14:02:25.236Z,17.13
2018-06-13T14:05:28.842Z,17.03
2018-06-13T14:08:32.615Z,17.03
2018-06-13T14:11:36.387Z,16.88
2018-06-13T14:14:41.208Z,17.14
2018-06-13T14:17:44.893Z,16.82
2018-06-13T14:20:48.511Z,16.70
2018-06-13T14:23:52.303Z,16.36
2018-06-13T14:26:55.974Z,16.57
2018-06-13T14:29:59.688Z,16.76
2018-06-13T14:33:03.371Z,17.24
2018-06-13T14:36:06.963Z,17.29
2018-06-13T14:39:11.491Z,17.39
2018-06-13T14:42:15.136Z,17.28
2018-06-13T14:45:19.463Z,17.43
2018-06-13T14:48:23.240Z,17.36
2018-06-13T14:51:26.904Z,17.56
2018-06-13T14:54:30.638Z,18.06
2018-06-13T14:57:34.321Z,18.33
2018-06-13T15:00:37.963Z,18.36
2018-06-13T15:03:42.412Z,18.21
2018-06-13T15:06:46.009Z,18.13
2018-06-13T15:09:49.672Z,18.07
2018-06-13T15:12:53.484Z,17.88
2018-06-13T15:15:57.113Z,17.59
2018-06-13T15:19:00.756Z,17.50
2018-06-13T15:22:04.467Z,17.39
2018-06-13T15:25:08.224Z,17.54
2018-06-13T15:28:11.842Z,17.74
2018-06-13T15:31:15.511Z,17.66
2018-06-13T15:34:19.244Z,17.80
2018-06-13T15:37:22.891Z,17.65
2018-06-13T15:40:26.501Z,17.45
2018-06-13T15:43:32.477Z,17.29
2018-06-13T15:46:36.274Z,17.18
2018-06-13T15:49:52.019Z,17.37
2018-06-13T15:59:47.418Z,18.18
2018-06-13T16:02:51.117Z,18.44
2018-06-13T16:05:54.913Z,17.91
2018-06-13T16:08:58.683Z,17.78
2018-06-13T16:12:02.412Z,17.62
2018-06-13T16:15:06.264Z,17.48
2018-06-13T16:18:10.028Z,17.38
2018-06-13T16:21:13.682Z,17.31
2018-06-13T16:24:17.399Z,17.33
2018-06-13T16:27:21.052Z,17.47
2018-06-13T16:30:24.813Z,17.55
2018-06-13T16:33:28.481Z,17.44
2018-06-13T16:36:32.148Z,17.43
2018-06-13T16:39:35.872Z,17.33
2018-06-13T16:42:39.534Z,17.36
2018-06-13T16:45:43.174Z,17.26
2018-06-13T16:48:46.867Z,17.17
2018-06-13T16:51:56.349Z,17.33
2018-06-13T16:55:24.850Z,17.82
2018-06-13T16:58:28.528Z,18.39
2018-06-13T17:01:32.270Z,18.19
2018-06-13T17:04:37.530Z,18.04
2018-06-13T17:07:41.279Z,19.10
2018-06-13T17:10:44.828Z,20.10
2018-06-13T17:13:48.534Z,19.75
2018-06-13T17:16:52.248Z,19.59
2018-06-13T17:19:55.899Z,19.40
2018-06-13T17:22:59.521Z,19.02
2018-06-13T17:26:03.349Z,17.99
2018-06-13T17:29:06.999Z,17.49
2018-06-13T17:32:10.626Z,17.21
2018-06-13T17:35:14.334Z,17.04
2018-06-13T17:38:18.359Z,17.02
2018-06-13T17:41:21.978Z,16.84
2018-06-13T17:44:25.607Z,17.64
2018-06-13T17:47:29.245Z,17.84
2018-06-13T17:50:32.943Z,17.74
2018-06-13T17:53:36.670Z,18.00
2018-06-13T17:56:40.275Z,19.13
2018-06-13T17:59:43.936Z,20.46
2018-06-13T18:02:47.605Z,21.31
2018-06-13T18:05:51.410Z,20.26
2018-06-13T18:08:55.070Z,18.49
2018-06-13T18:11:58.885Z,17.56
2018-06-13T18:15:02.516Z,17.32
2018-06-13T18:18:06.449Z,16.91
2018-06-13T18:21:10.145Z,16.48
2018-06-13T18:24:13.894Z,16.66
2018-06-13T18:27:17.574Z,17.32
2018-06-13T18:30:21.313Z,16.86
2018-06-13T18:33:25.049Z,16.82
2018-06-13T18:36:28.644Z,16.43
2018-06-13T18:39:32.259Z,16.05
2018-06-13T18:42:35.996Z,16.04
2018-06-13T18:45:39.770Z,15.80
2018-06-13T18:48:43.526Z,15.70
2018-06-13T18:51:47.288Z,15.49
2018-06-13T18:54:50.939Z,15.43
2018-06-13T18:57:54.718Z,15.28
2018-06-13T19:00:58.769Z,15.27
2018-06-13T19:04:02.484Z,15.09
2018-06-13T19:07:06.147Z,14.96
2018-06-13T19:10:09.885Z,14.88
2018-06-13T19:13:13.666Z,14.72
2018-06-13T19:16:17.331Z,14.68
2018-06-13T19:19:21.321Z,14.59
2018-06-13T19:22:25.125Z,14.49
2018-06-13T19:25:28.903Z,14.37
2018-06-13T19:28:32.831Z,14.35
2018-06-13T19:31:36.499Z,14.29
2018-06-13T19:34:40.308Z,14.12
2018-06-13T19:37:43.978Z,14.08
2018-06-13T19:40:47.633Z,14.05
2018-06-13T19:43:51.520Z,13.94
2018-06-13T19:46:59.500Z,13.86
2018-06-13T19:50:03.263Z,13.75
2018-06-13T19:53:12.050Z,13.70
2018-06-13T19:56:17.939Z,13.60
2018-06-13T19:59:21.749Z,13.54
2018-06-13T20:02:29.565Z,13.52
2018-06-13T20:05:39.599Z,13.39
2018-06-13T20:08:43.171Z,13.33
2018-06-13T20:11:47.853Z,13.31
2018-06-13T20:14:56.950Z,13.34
2018-06-13T20:18:06.229Z,13.35
2018-06-13T20:21:10.824Z,13.33
2018-06-13T20:24:14.710Z,13.31
2018-06-13T20:27:23.539Z,13.22
2018-06-13T20:30:32.501Z,13.12
2018-06-13T20:33:36.240Z,13.08
2018-06-13T20:36:39.900Z,13.04
2018-06-13T20:39:43.669Z,12.96
2018-06-13T20:42:50.095Z,12.97
2018-06-13T20:45:53.864Z,12.99
2018-06-13T20:48:57.458Z,12.93
2018-06-13T20:52:01.136Z,12.88
2018-06-13T20:55:04.815Z,12.80
2018-06-13T20:58:08.490Z,12.80
2018-06-13T21:01:12.191Z,12.81
2018-06-13T21:04:15.816Z,12.73
2018-06-13T21:07:20.387Z,12.77
2018-06-13T21:10:24.020Z,12.76
2018-06-13T21:13:27.623Z,12.65
2018-06-13T21:16:32.120Z,12.59
2018-06-13T21:19:35.716Z,12.47
2018-06-13T21:22:39.451Z,12.42
2018-06-13T21:25:43.240Z,12.41
2018-06-13T21:28:46.856Z,12.40
2018-06-13T21:31:50.476Z,12.30
2018-06-13T21:34:54.168Z,12.22
2018-06-13T21:37:57.814Z,12.19
2018-06-13T21:41:01.343Z,12.15
2018-06-13T21:44:04.911Z,12.14
2018-06-13T21:47:08.541Z,12.07
2018-06-13T21:50:12.160Z,12.08
2018-06-13T21:53:15.661Z,12.06
2018-06-13T21:56:19.292Z,12.13
2018-06-13T21:59:23.041Z,12.10
2018-06-13T22:02:26.696Z,12.05
2018-06-13T22:05:30.409Z,11.98
2018-06-13T22:08:33.985Z,11.97
2018-06-13T22:11:43.827Z,11.97
2018-06-13T22:14:47.376Z,11.91
2018-06-13T22:17:51.168Z,11.97
2018-06-13T22:20:54.727Z,11.88
2018-06-13T22:23:58.441Z,11.85
2018-06-13T22:27:02.073Z,11.79
2018-06-13T22:30:05.692Z,11.79
2018-06-13T22:33:09.252Z,11.78
2018-06-13T22:36:12.765Z,11.73
2018-06-13T22:39:16.440Z,11.72
2018-06-13T22:42:20.120Z,11.67
2018-06-13T22:45:23.650Z,11.67
2018-06-13T22:48:27.310Z,11.66
2018-06-13T22:51:31.172Z,11.74
2018-06-13T22:54:34.692Z,11.69
2018-06-13T22:57:38.293Z,11.64
2018-06-13T23:01:06.502Z,11.66
2018-06-13T23:04:10.187Z,11.61
2018-06-13T23:07:13.707Z,11.61
2018-06-13T23:10:17.406Z,11.60
2018-06-13T23:13:20.987Z,11.60
2018-06-13T23:16:24.546Z,11.54
2018-06-13T23:19:28.142Z,11.49
2018-06-13T23:22:31.707Z,11.48
2018-06-13T23:25:35.392Z,11.49
2018-06-13T23:28:39.066Z,11.42
2018-06-13T23:31:42.631Z,11.38
2018-06-13T23:34:46.160Z,11.40
2018-06-13T23:37:49.784Z,11.43
2018-06-13T23:40:53.303Z,11.41
2018-06-13T23:43:56.942Z,11.37
2018-06-13T23:47:00.447Z,11.33
2018-06-13T23:50:04.227Z,11.32
2018-06-13T23:53:07.922Z,11.26
2018-06-13T23:56:11.402Z,11.26
2018-06-13T23:59:14.984Z,11.25
